Time;durP1;ratioP1;P1;durP2;ratioP2;P2;SDS_P1;SDS_P2;PMS_P1;PMS_P2;Temp;Humidity;BMP_temperature;BMP_pressure;BME280_temperature;BME280_humidity;BME280_pressure;Samples;Min_cycle;Max_cycle;Signal;HPM_P1;HPM_P2
2021/12/26 00:01:39;;;;;;;3.70;2.80;;;0.60;94.60;;;;;;5059215;28;20285;-43
2021/12/26 00:04:05;;;;;;;4.93;2.90;;;0.50;94.90;;;;;;5066373;28;20524;-43
2021/12/26 00:06:31;;;;;;;3.43;2.80;;;0.50;94.80;;;;;;5067241;28;20412;-43
2021/12/26 00:08:59;;;;;;;4.67;3.30;;;0.60;94.70;;;;;;5068157;28;21002;-42
2021/12/26 00:11:25;;;;;;;4.70;3.60;;;0.50;94.50;;;;;;5068199;28;20423;-44
2021/12/26 00:13:53;;;;;;;3.53;3.07;;;0.40;94.80;;;;;;5067702;28;20408;-44
2021/12/26 00:16:20;;;;;;;3.13;2.73;;;0.50;95.50;;;;;;5063047;28;20419;-44
2021/12/26 00:18:47;;;;;;;3.00;2.70;;;0.40;95.00;;;;;;5065749;28;20426;-41
2021/12/26 00:21:18;;;;;;;3.60;2.80;;;0.40;95.40;;;;;;5064453;28;20746;-43
2021/12/26 00:23:45;;;;;;;3.90;3.07;;;0.70;95.40;;;;;;5067711;28;20796;-43
2021/12/26 00:26:11;;;;;;;3.20;2.60;;;0.40;95.40;;;;;;5066944;28;20447;-42
2021/12/26 00:28:37;;;;;;;4.20;3.40;;;0.60;96.00;;;;;;5068160;28;20528;-42
2021/12/26 00:31:03;;;;;;;2.93;2.60;;;0.60;96.20;;;;;;5064314;28;20485;-41
2021/12/26 00:33:30;;;;;;;3.20;2.50;;;0.50;96.50;;;;;;5058580;28;20948;-44
2021/12/26 00:35:57;;;;;;;7.10;3.30;;;0.50;96.30;;;;;;5064264;28;20390;-46
2021/12/26 00:38:23;;;;;;;2.97;2.37;;;0.70;96.40;;;;;;5067903;28;20457;-42
2021/12/26 00:40:50;;;;;;;4.50;3.20;;;0.50;96.00;;;;;;5067721;28;20418;-41
2021/12/26 00:43:16;;;;;;;4.57;3.33;;;0.60;96.10;;;;;;5067492;28;20950;-42
2021/12/26 00:45:42;;;;;;;3.70;2.93;;;0.50;96.30;;;;;;5067927;28;20415;-47
2021/12/26 00:48:09;;;;;;;4.10;3.47;;;0.60;96.00;;;;;;5059258;28;20932;-42
2021/12/26 00:50:37;;;;;;;4.17;3.10;;;0.40;96.20;;;;;;5067565;28;20185;-41
2021/12/26 00:53:03;;;;;;;5.07;3.10;;;0.60;96.50;;;;;;5067098;28;20427;-42
2021/12/26 00:55:29;;;;;;;3.50;2.73;;;0.50;96.50;;;;;;5067483;28;20471;-44
2021/12/26 00:57:55;;;;;;;4.57;3.07;;;0.70;96.40;;;;;;5067222;28;20490;-43
2021/12/26 01:00:25;;;;;;;3.60;2.87;;;0.80;96.60;;;;;;5066247;28;20181;-41
2021/12/26 01:02:52;;;;;;;3.67;2.73;;;0.50;96.50;;;;;;5053179;28;20406;-42
2021/12/26 01:05:19;;;;;;;3.00;2.63;;;0.50;96.70;;;;;;5066302;28;20446;-44
2021/12/26 01:10:22;;;;;;;4.67;3.20;;;0.50;96.90;;;;;;5053074;28;20929;-44
2021/12/26 01:12:49;;;;;;;4.37;2.80;;;0.70;97.10;;;;;;5066210;28;20392;-44
2021/12/26 01:15:17;;;;;;;5.43;3.00;;;0.50;97.40;;;;;;5065991;28;20884;-40
2021/12/26 01:17:44;;;;;;;3.10;2.80;;;0.60;97.40;;;;;;5059200;28;20534;-42
2021/12/26 01:20:25;;;;;;;4.10;3.43;;;0.90;97.50;;;;;;5066621;28;20469;-43
2021/12/26 01:22:50;;;;;;;4.43;3.10;;;0.60;97.70;;;;;;5066086;28;20969;-44
2021/12/26 01:25:16;;;;;;;4.00;2.47;;;0.60;98.20;;;;;;5067279;28;20665;-42
2021/12/26 01:27:42;;;;;;;3.80;2.77;;;0.60;98.50;;;;;;5066916;28;20177;-43
2021/12/26 01:30:08;;;;;;;3.97;3.30;;;0.50;98.60;;;;;;5066911;28;20193;-42
2021/12/26 01:32:34;;;;;;;5.30;2.93;;;0.50;98.70;;;;;;5076586;28;20541;-41
2021/12/26 01:34:59;;;;;;;3.73;3.30;;;0.70;99.00;;;;;;5070894;28;20414;-43
2021/12/26 01:37:25;;;;;;;6.53;3.10;;;0.50;98.90;;;;;;5065360;28;20192;-41
2021/12/26 01:39:51;;;;;;;4.13;3.23;;;0.60;98.40;;;;;;5066757;28;20751;-43
2021/12/26 01:42:17;;;;;;;5.93;3.10;;;0.60;98.30;;;;;;5066628;28;20204;-43
2021/12/26 01:44:43;;;;;;;3.47;2.97;;;0.60;98.60;;;;;;5065759;28;20578;-42
2021/12/26 01:47:09;;;;;;;4.60;3.27;;;0.80;98.30;;;;;;5061193;28;20414;-40
2021/12/26 01:49:35;;;;;;;3.77;2.90;;;0.70;98.30;;;;;;5061328;28;20417;-43
2021/12/26 01:52:04;;;;;;;4.03;3.23;;;0.50;98.90;;;;;;5066509;28;20427;-42
2021/12/26 01:57:05;;;;;;;4.10;2.83;;;0.40;99.00;;;;;;5066427;28;20809;-41
2021/12/26 01:59:31;;;;;;;4.03;3.17;;;0.40;99.20;;;;;;5064058;28;20527;-41
2021/12/26 02:01:58;;;;;;;4.93;3.10;;;0.50;99.10;;;;;;5063969;28;20447;-41
2021/12/26 02:04:28;;;;;;;3.70;3.40;;;0.60;98.90;;;;;;5058987;28;20902;-41
2021/12/26 02:07:00;;;;;;;3.40;2.90;;;0.60;98.70;;;;;;5066171;28;20419;-41
2021/12/26 02:09:26;;;;;;;5.77;3.97;;;0.50;98.90;;;;;;5066592;28;20419;-41
2021/12/26 02:11:52;;;;;;;4.47;3.10;;;0.40;99.10;;;;;;5066121;28;20430;-42
2021/12/26 02:14:18;;;;;;;5.20;3.33;;;0.50;98.90;;;;;;5064559;28;20964;-42
2021/12/26 02:16:44;;;;;;;3.67;2.80;;;0.50;98.80;;;;;;5066604;28;20933;-40
2021/12/26 02:19:11;;;;;;;4.03;2.93;;;0.60;99.20;;;;;;5051633;28;20475;-41
2021/12/26 02:25:27;;;;;;;4.77;3.50;;;0.50;99.60;;;;;;5066167;28;20492;-41
2021/12/26 02:29:51;;;;;;;4.40;2.90;;;0.50;99.70;;;;;;5066717;28;20798;-40
2021/12/26 02:32:16;;;;;;;5.90;3.50;;;0.30;99.40;;;;;;5063288;28;20440;-41
2021/12/26 02:34:42;;;;;;;4.43;3.00;;;0.40;99.40;;;;;;5055379;28;20231;-41
2021/12/26 02:37:08;;;;;;;4.60;3.30;;;0.20;99.50;;;;;;5065913;28;20189;-41
2021/12/26 02:39:35;;;;;;;4.70;2.70;;;0.20;99.40;;;;;;5064737;28;20621;-47
2021/12/26 02:42:01;;;;;;;4.60;3.20;;;0.40;99.70;;;;;;5065924;28;20261;-41
2021/12/26 02:44:27;;;;;;;4.63;3.13;;;0.50;99.90;;;;;;5065805;28;20580;-41
2021/12/26 02:46:53;;;;;;;5.73;3.20;;;0.50;99.60;;;;;;5065773;28;20913;-41
2021/12/26 02:49:25;;;;;;;3.90;3.10;;;0.40;99.60;;;;;;5057314;28;20193;-45
2021/12/26 02:51:52;;;;;;;3.60;3.20;;;0.60;99.60;;;;;;5065479;28;20488;-41
2021/12/26 02:54:22;;;;;;;3.70;2.90;;;0.40;99.50;;;;;;5080885;28;20427;-41
2021/12/26 02:56:47;;;;;;;5.60;3.60;;;0.50;99.40;;;;;;5066644;28;20803;-41
2021/12/26 02:59:13;;;;;;;3.27;2.90;;;0.50;99.90;;;;;;5069219;28;20466;-41
2021/12/26 03:01:39;;;;;;;5.70;3.23;;;0.40;99.90;;;;;;5069421;28;20276;-42
2021/12/26 03:04:08;;;;;;;4.00;3.17;;;0.40;99.90;;;;;;5058356;28;20870;-42
2021/12/26 03:06:42;;;;;;;4.13;3.73;;;0.50;99.90;;;;;;5069336;28;20272;-42
2021/12/26 03:09:08;;;;;;;4.27;3.00;;;0.60;99.90;;;;;;5069615;28;20393;-42
2021/12/26 03:11:38;;;;;;;3.60;2.80;;;0.40;99.90;;;;;;5069551;28;20471;-41
2021/12/26 03:14:04;;;;;;;5.30;3.20;;;0.20;99.90;;;;;;5068774;28;20192;-42
2021/12/26 03:16:30;;;;;;;4.40;3.00;;;0.30;99.90;;;;;;5069655;28;20821;-41
2021/12/26 03:18:59;;;;;;;3.70;3.10;;;0.10;99.90;;;;;;5061727;28;20514;-41
2021/12/26 03:21:24;;;;;;;3.27;2.97;;;0.20;99.90;;;;;;5069266;28;20235;-41
2021/12/26 03:23:50;;;;;;;4.20;3.17;;;0.20;99.90;;;;;;5068479;28;20402;-41
2021/12/26 03:26:16;;;;;;;6.60;2.97;;;0.20;99.90;;;;;;5069218;28;20241;-41
2021/12/26 03:28:42;;;;;;;4.40;3.50;;;0.40;99.90;;;;;;5069157;28;20192;-41
2021/12/26 03:31:07;;;;;;;4.40;3.30;;;0.20;99.90;;;;;;5069824;28;20200;-45
2021/12/26 03:33:33;;;;;;;4.33;3.10;;;0.10;99.80;;;;;;5058063;28;20196;-41
2021/12/26 03:35:59;;;;;;;4.13;3.47;;;0.40;99.90;;;;;;5068325;28;20262;-41
2021/12/26 03:38:25;;;;;;;3.57;2.80;;;0.30;99.90;;;;;;5069073;28;20460;-41
2021/12/26 03:40:53;;;;;;;3.17;2.80;;;0.30;99.90;;;;;;5069142;28;20181;-42
2021/12/26 03:43:19;;;;;;;3.67;2.83;;;0.20;99.70;;;;;;5068328;28;20497;-43
2021/12/26 03:45:48;;;;;;;3.90;2.80;;;0.50;99.40;;;;;;5067418;28;20398;-41
2021/12/26 03:48:16;;;;;;;6.67;3.43;;;0.50;99.60;;;;;;5060534;28;20435;-42
2021/12/26 03:50:42;;;;;;;3.43;2.70;;;0.20;99.90;;;;;;5067164;28;20511;-41
2021/12/26 03:53:09;;;;;;;3.03;2.80;;;0.10;99.90;;;;;;5067967;28;20485;-43
2021/12/26 03:55:35;;;;;;;4.47;3.53;;;0.30;99.90;;;;;;5055910;28;20196;-41
2021/12/26 03:58:01;;;;;;;2.83;2.50;;;0.00;99.70;;;;;;5068518;28;20817;-42
2021/12/26 04:00:27;;;;;;;4.07;3.50;;;0.10;99.40;;;;;;5066264;28;20414;-40
2021/12/26 04:02:54;;;;;;;4.20;2.80;;;0.10;99.50;;;;;;5065897;28;20201;-40
2021/12/26 04:05:20;;;;;;;4.33;3.03;;;-0.10;99.70;;;;;;5060750;28;20931;-40
2021/12/26 04:07:46;;;;;;;3.20;2.40;;;0.00;99.90;;;;;;5067719;28;20480;-40
2021/12/26 04:10:13;;;;;;;3.17;2.53;;;0.00;99.70;;;;;;5068384;28;20822;-39
2021/12/26 04:12:44;;;;;;;3.90;2.97;;;-0.10;99.60;;;;;;5068207;28;20208;-40
2021/12/26 04:15:12;;;;;;;3.67;2.90;;;0.10;99.90;;;;;;5068136;28;20435;-42
2021/12/26 04:17:38;;;;;;;3.00;2.73;;;-0.10;99.40;;;;;;5069379;28;20444;-40
2021/12/26 04:20:06;;;;;;;3.27;2.60;;;0.10;99.10;;;;;;5058930;28;20499;-41
2021/12/26 04:22:32;;;;;;;3.67;2.80;;;0.30;98.70;;;;;;5067830;28;20426;-39
2021/12/26 04:24:58;;;;;;;2.53;2.33;;;0.10;98.60;;;;;;5067729;28;20406;-41
2021/12/26 04:27:24;;;;;;;4.00;2.80;;;0.40;98.60;;;;;;5067721;28;20458;-39
2021/12/26 04:29:52;;;;;;;3.50;2.37;;;0.20;98.10;;;;;;5068045;28;20402;-39
2021/12/26 04:32:17;;;;;;;3.63;2.63;;;0.20;98.50;;;;;;5067961;28;20760;-40
2021/12/26 04:34:43;;;;;;;4.37;3.10;;;0.10;98.90;;;;;;5074427;28;20497;-41
2021/12/26 04:37:09;;;;;;;3.23;2.80;;;0.00;99.20;;;;;;5067455;28;20173;-40
2021/12/26 04:39:35;;;;;;;3.43;2.53;;;-0.10;99.10;;;;;;5068130;28;20687;-40
2021/12/26 04:42:00;;;;;;;2.90;2.33;;;0.00;99.40;;;;;;5067368;28;20401;-40
2021/12/26 04:44:27;;;;;;;4.77;2.80;;;0.10;99.50;;;;;;5067608;28;20189;-40
2021/12/26 04:46:53;;;;;;;3.43;2.90;;;0.10;99.50;;;;;;5067531;28;20390;-40
2021/12/26 04:49:19;;;;;;;3.70;2.57;;;0.20;99.30;;;;;;5058161;28;20444;-41
2021/12/26 04:51:45;;;;;;;2.67;2.43;;;0.20;99.30;;;;;;5063583;28;20423;-39
2021/12/26 04:54:11;;;;;;;3.13;2.83;;;0.30;98.90;;;;;;5067229;28;20181;-40
2021/12/26 04:56:36;;;;;;;3.53;2.90;;;0.30;98.70;;;;;;5067523;28;20200;-39
2021/12/26 04:59:03;;;;;;;2.90;2.60;;;0.30;98.80;;;;;;5067466;28;20235;-39
2021/12/26 05:01:29;;;;;;;3.90;2.97;;;0.20;99.00;;;;;;5066592;28;20270;-41
2021/12/26 05:03:55;;;;;;;3.90;2.87;;;0.10;99.10;;;;;;5059363;28;20521;-39
2021/12/26 05:06:20;;;;;;;3.43;3.10;;;0.10;99.30;;;;;;5062662;28;20761;-46
2021/12/26 05:08:46;;;;;;;4.33;2.90;;;0.10;99.60;;;;;;5067176;28;20257;-40
2021/12/26 05:11:12;;;;;;;4.50;3.30;;;0.30;99.90;;;;;;5067500;28;20185;-40
2021/12/26 05:13:37;;;;;;;5.30;2.90;;;0.00;99.90;;;;;;5066203;28;20691;-41
2021/12/26 05:16:03;;;;;;;2.87;2.60;;;0.20;99.80;;;;;;5067289;28;20189;-41
2021/12/26 05:18:29;;;;;;;3.60;2.80;;;0.10;99.90;;;;;;5068234;28;20246;-41
2021/12/26 05:20:56;;;;;;;3.00;2.33;;;0.00;99.80;;;;;;5059118;28;20828;-40
2021/12/26 05:23:23;;;;;;;3.20;2.60;;;0.10;99.70;;;;;;5066698;28;20511;-43
2021/12/26 05:25:48;;;;;;;3.60;2.90;;;0.30;99.40;;;;;;5067210;28;20758;-41
2021/12/26 05:28:14;;;;;;;4.10;2.73;;;0.50;99.30;;;;;;5066421;28;20475;-40
2021/12/26 05:30:40;;;;;;;3.33;2.70;;;0.30;99.10;;;;;;5067262;28;20198;-40
2021/12/26 05:33:06;;;;;;;3.20;2.80;;;0.50;99.10;;;;;;5066481;28;20197;-40
2021/12/26 05:35:32;;;;;;;4.27;2.97;;;0.60;99.10;;;;;;5056112;28;20305;-41
2021/12/26 05:37:58;;;;;;;4.37;2.50;;;0.60;99.00;;;;;;5066978;28;20409;-40
2021/12/26 05:40:24;;;;;;;4.00;3.13;;;0.60;99.00;;;;;;5066618;28;20895;-41
2021/12/26 05:42:50;;;;;;;2.83;2.33;;;0.40;99.00;;;;;;5066056;28;20423;-40
2021/12/26 05:45:16;;;;;;;3.40;2.83;;;0.60;99.20;;;;;;5066673;28;20185;-40
2021/12/26 05:47:41;;;;;;;3.37;2.50;;;0.40;99.20;;;;;;5067042;28;20230;-41
2021/12/26 05:50:10;;;;;;;3.10;2.70;;;0.40;99.20;;;;;;5055670;28;20920;-42
2021/12/26 05:52:36;;;;;;;3.97;3.57;;;0.60;99.50;;;;;;5066304;28;20536;-39
2021/12/26 05:55:03;;;;;;;3.37;2.90;;;0.60;99.60;;;;;;5065971;28;20463;-41
2021/12/26 05:57:29;;;;;;;4.67;2.70;;;0.50;99.60;;;;;;5066354;28;20421;-40
2021/12/26 05:59:55;;;;;;;4.40;3.27;;;0.50;99.50;;;;;;5080330;28;20785;-41
2021/12/26 06:02:20;;;;;;;4.60;2.60;;;0.70;99.50;;;;;;5086688;28;20181;-40
2021/12/26 06:04:46;;;;;;;3.97;2.97;;;0.70;99.50;;;;;;5067592;28;20190;-41
2021/12/26 06:07:12;;;;;;;4.87;3.10;;;0.40;99.70;;;;;;5059491;28;20181;-40
2021/12/26 06:09:37;;;;;;;2.90;2.60;;;0.40;99.90;;;;;;5066980;28;20193;-40
2021/12/26 06:12:04;;;;;;;3.07;2.50;;;0.50;99.90;;;;;;5065867;28;20185;-40
2021/12/26 06:14:29;;;;;;;3.93;2.50;;;0.50;99.90;;;;;;5065765;28;20243;-40
2021/12/26 06:16:55;;;;;;;2.90;2.60;;;0.50;99.90;;;;;;5066126;28;20455;-40
2021/12/26 06:19:21;;;;;;;3.50;2.80;;;0.70;99.90;;;;;;5069827;28;20201;-41
2021/12/26 06:21:46;;;;;;;3.23;2.83;;;0.50;99.90;;;;;;5064674;28;20455;-40
2021/12/26 06:24:12;;;;;;;4.43;3.63;;;0.50;99.90;;;;;;5059631;28;20600;-40
2021/12/26 06:26:38;;;;;;;3.73;2.80;;;0.30;99.90;;;;;;5066069;28;20185;-40
2021/12/26 06:29:04;;;;;;;3.20;2.87;;;0.30;99.90;;;;;;5066317;28;20194;-41
2021/12/26 06:31:29;;;;;;;3.53;2.97;;;0.30;99.90;;;;;;5083875;28;20193;-41
2021/12/26 06:33:56;;;;;;;3.90;2.93;;;0.30;99.90;;;;;;5067405;28;20506;-40
2021/12/26 06:36:22;;;;;;;3.13;2.60;;;0.50;99.90;;;;;;5063147;28;20194;-40
2021/12/26 06:38:48;;;;;;;2.97;2.60;;;0.50;99.90;;;;;;5070024;28;20461;-39
2021/12/26 06:41:15;;;;;;;3.87;2.93;;;0.50;99.90;;;;;;5070569;28;20185;-40
2021/12/26 06:43:42;;;;;;;3.53;2.87;;;0.40;99.90;;;;;;5069507;28;20800;-40
2021/12/26 06:46:08;;;;;;;3.40;3.10;;;0.40;99.90;;;;;;5070178;28;20510;-43
2021/12/26 06:48:34;;;;;;;3.50;3.13;;;0.50;99.90;;;;;;5069750;28;20937;-41
2021/12/26 06:51:01;;;;;;;3.70;3.10;;;0.70;99.90;;;;;;5060579;28;20413;-40
2021/12/26 06:53:28;;;;;;;3.67;3.10;;;0.80;99.90;;;;;;5068967;28;20427;-44
2021/12/26 06:55:53;;;;;;;3.60;3.03;;;0.60;99.90;;;;;;5069899;28;20514;-40
2021/12/26 06:58:20;;;;;;;3.10;2.80;;;0.70;99.90;;;;;;5069263;28;20565;-40
2021/12/26 07:00:47;;;;;;;5.03;3.70;;;0.70;99.90;;;;;;5068878;28;20393;-42
2021/12/26 07:03:13;;;;;;;3.97;3.03;;;0.60;99.90;;;;;;5068539;28;20928;-40
2021/12/26 07:05:38;;;;;;;5.07;3.17;;;0.60;99.90;;;;;;5055523;28;20447;-41
2021/12/26 07:08:05;;;;;;;3.40;2.80;;;0.60;99.90;;;;;;5067982;28;20431;-40
2021/12/26 07:10:30;;;;;;;3.37;2.97;;;0.60;99.90;;;;;;5069593;28;20226;-42
2021/12/26 07:12:56;;;;;;;5.53;2.97;;;0.60;99.90;;;;;;5068486;28;20394;-40
2021/12/26 07:15:22;;;;;;;4.70;2.90;;;0.80;99.90;;;;;;5069831;28;20985;-40
2021/12/26 07:17:48;;;;;;;3.20;2.90;;;0.70;99.90;;;;;;5070827;28;20284;-40
2021/12/26 07:20:15;;;;;;;3.73;2.90;;;0.80;99.90;;;;;;5070359;28;20611;-40
2021/12/26 07:22:42;;;;;;;4.53;3.23;;;0.60;99.90;;;;;;5063813;28;20406;-41
2021/12/26 07:25:08;;;;;;;5.10;3.20;;;0.70;99.90;;;;;;5068388;28;20520;-41
2021/12/26 07:27:34;;;;;;;3.57;3.10;;;0.80;99.90;;;;;;5069264;28;20402;-40
2021/12/26 07:30:02;;;;;;;3.80;3.10;;;0.90;99.90;;;;;;5069215;28;20433;-40
2021/12/26 07:32:29;;;;;;;4.60;3.03;;;0.90;99.90;;;;;;5069390;28;20451;-40
2021/12/26 07:34:55;;;;;;;4.33;3.40;;;0.80;99.90;;;;;;5061143;28;20555;-40
2021/12/26 07:37:21;;;;;;;3.00;2.70;;;0.80;99.90;;;;;;5066477;28;20508;-42
2021/12/26 07:39:47;;;;;;;4.20;3.47;;;0.70;99.90;;;;;;5069109;28;21129;-40
2021/12/26 07:42:12;;;;;;;4.40;3.30;;;0.70;99.90;;;;;;5068306;28;20181;-40
2021/12/26 07:44:38;;;;;;;4.30;3.17;;;0.60;99.90;;;;;;5068202;28;20250;-40
2021/12/26 07:47:05;;;;;;;3.97;3.30;;;0.80;99.90;;;;;;5068986;28;20192;-40
2021/12/26 07:49:31;;;;;;;4.87;3.13;;;0.70;99.90;;;;;;5065788;28;20443;-41
2021/12/26 07:51:57;;;;;;;3.10;2.63;;;0.90;99.90;;;;;;5061569;28;20435;-40
2021/12/26 07:54:24;;;;;;;4.53;3.00;;;0.80;99.90;;;;;;5068292;28;20181;-41
2021/12/26 07:56:52;;;;;;;3.27;2.90;;;0.50;99.90;;;;;;5068676;28;20508;-40
2021/12/26 07:59:17;;;;;;;4.70;3.50;;;0.60;99.90;;;;;;5067625;28;20616;-40
2021/12/26 08:01:43;;;;;;;3.73;3.20;;;0.50;99.90;;;;;;5068243;28;20494;-41
2021/12/26 08:04:11;;;;;;;4.60;3.13;;;0.60;99.90;;;;;;5068509;28;20234;-41
2021/12/26 08:06:37;;;;;;;3.80;3.40;;;0.80;99.90;;;;;;5055334;28;20560;-41
2021/12/26 08:09:03;;;;;;;3.83;3.40;;;0.60;99.90;;;;;;5068604;28;20406;-41
2021/12/26 08:11:29;;;;;;;3.43;3.10;;;0.80;99.90;;;;;;5068167;28;20419;-40
2021/12/26 08:13:55;;;;;;;4.00;3.13;;;1.00;99.90;;;;;;5068207;28;20423;-40
2021/12/26 08:16:20;;;;;;;3.43;2.90;;;1.10;99.90;;;;;;5068245;28;20197;-42
2021/12/26 08:18:47;;;;;;;4.80;2.97;;;1.00;99.90;;;;;;5079443;28;20204;-40
2021/12/26 08:21:13;;;;;;;3.87;3.20;;;1.20;99.90;;;;;;5060405;28;20828;-42
2021/12/26 08:23:38;;;;;;;3.73;3.03;;;0.80;99.90;;;;;;5060992;28;20501;-40
2021/12/26 08:26:04;;;;;;;5.47;3.60;;;1.10;99.90;;;;;;5067823;28;20243;-40
2021/12/26 08:28:31;;;;;;;4.70;3.13;;;1.00;99.90;;;;;;5068369;28;20191;-40
2021/12/26 08:30:57;;;;;;;5.40;3.37;;;1.10;99.90;;;;;;5065422;28;20463;-41
2021/12/26 08:33:22;;;;;;;3.90;3.43;;;1.00;99.90;;;;;;5066762;28;20419;-40
2021/12/26 08:35:49;;;;;;;5.43;3.20;;;1.00;99.90;;;;;;5060231;28;20530;-41
2021/12/26 08:38:19;;;;;;;5.30;3.53;;;1.10;99.90;;;;;;5069096;28;20690;-40
2021/12/26 08:40:45;;;;;;;4.20;3.80;;;1.20;99.90;;;;;;5070228;28;20932;-40
2021/12/26 08:43:10;;;;;;;5.60;4.83;;;1.20;99.90;;;;;;5065188;28;20390;-40
2021/12/26 08:45:37;;;;;;;4.73;4.20;;;1.20;99.90;;;;;;5067694;28;20275;-41
2021/12/26 08:48:03;;;;;;;4.33;3.50;;;1.10;99.90;;;;;;5066102;28;20209;-40
2021/12/26 08:50:29;;;;;;;5.17;3.40;;;1.30;99.90;;;;;;5065970;28;20918;-41
2021/12/26 08:52:55;;;;;;;3.67;2.97;;;1.40;99.90;;;;;;5065883;28;20433;-41
2021/12/26 08:55:23;;;;;;;5.70;4.27;;;1.50;99.90;;;;;;5066968;28;20271;-41
2021/12/26 08:57:52;;;;;;;4.50;4.10;;;1.80;99.90;;;;;;5065929;28;21013;-40
2021/12/26 09:00:20;;;;;;;6.50;3.77;;;2.20;99.90;;;;;;5065567;28;20542;-41
2021/12/26 09:02:46;;;;;;;4.70;3.63;;;2.50;99.90;;;;;;5065747;28;20652;-41
2021/12/26 09:05:12;;;;;;;4.77;3.83;;;2.80;99.90;;;;;;5063664;28;20875;-41
2021/12/26 09:07:39;;;;;;;4.77;4.20;;;3.60;99.90;;;;;;5064855;28;20188;-41
2021/12/26 09:10:08;;;;;;;4.53;3.80;;;3.80;99.40;;;;;;5065349;28;21019;-41
2021/12/26 09:12:34;;;;;;;7.20;3.87;;;4.30;98.40;;;;;;5063188;28;20449;-41
2021/12/26 09:14:59;;;;;;;4.73;4.17;;;4.60;97.70;;;;;;5065444;28;20423;-41
2021/12/26 09:17:25;;;;;;;5.10;4.20;;;5.20;96.90;;;;;;5065324;28;20976;-41
2021/12/26 09:19:51;;;;;;;6.07;3.93;;;5.40;96.00;;;;;;5072077;28;20211;-42
2021/12/26 09:22:17;;;;;;;4.10;3.50;;;5.90;95.50;;;;;;5057560;28;20189;-42
2021/12/26 09:24:45;;;;;;;3.57;3.23;;;6.30;94.60;;;;;;5065234;28;20208;-42
2021/12/26 09:27:12;;;;;;;4.30;3.83;;;6.60;93.80;;;;;;5066049;28;20433;-41
2021/12/26 09:29:39;;;;;;;5.20;3.90;;;6.80;93.10;;;;;;5065724;28;20807;-42
2021/12/26 09:32:05;;;;;;;6.23;4.50;;;7.10;92.70;;;;;;5068104;28;20927;-43
2021/12/26 09:34:33;;;;;;;5.10;4.60;;;7.30;92.10;;;;;;5069873;28;20461;-42
2021/12/26 09:37:00;;;;;;;3.83;3.53;;;7.70;91.80;;;;;;5054443;28;20439;-45
2021/12/26 09:39:26;;;;;;;5.57;5.00;;;7.60;91.30;;;;;;5060742;28;20876;-42
2021/12/26 09:41:53;;;;;;;4.60;4.20;;;7.70;91.20;;;;;;5064434;28;21030;-43
2021/12/26 09:44:19;;;;;;;4.60;3.73;;;8.00;90.50;;;;;;5065270;28;20462;-42
2021/12/26 09:46:45;;;;;;;4.60;4.20;;;8.20;90.40;;;;;;5065754;28;20435;-42
2021/12/26 09:49:11;;;;;;;4.97;4.47;;;8.40;88.90;;;;;;5065843;28;20837;-42
2021/12/26 09:51:37;;;;;;;4.10;3.50;;;8.40;88.90;;;;;;5056251;28;20194;-43
2021/12/26 09:54:04;;;;;;;4.90;4.37;;;8.40;88.30;;;;;;5067002;28;20431;-43
2021/12/26 09:56:30;;;;;;;5.53;4.40;;;8.60;88.30;;;;;;5067183;28;20185;-42
2021/12/26 09:59:00;;;;;;;5.57;4.97;;;8.50;88.60;;;;;;5065203;28;20805;-42
2021/12/26 10:01:34;;;;;;;5.40;4.90;;;8.40;88.50;;;;;;5064161;28;20181;-42
2021/12/26 10:04:14;;;;;;;4.90;4.43;;;8.40;88.70;;;;;;5064981;28;20569;-42
2021/12/26 10:06:40;;;;;;;5.10;4.60;;;8.00;88.50;;;;;;5060737;28;20443;-42
2021/12/26 10:09:08;;;;;;;5.10;4.60;;;8.10;89.20;;;;;;5065724;28;20470;-42
2021/12/26 10:11:38;;;;;;;6.07;5.10;;;8.00;89.70;;;;;;5067353;28;20216;-42
2021/12/26 10:14:15;;;;;;;6.27;5.27;;;7.90;90.10;;;;;;5064600;28;20445;-44
2021/12/26 10:16:45;;;;;;;5.63;5.13;;;8.00;90.30;;;;;;5052310;28;20492;-43
2021/12/26 10:19:11;;;;;;;7.17;6.30;;;7.70;90.70;;;;;;5067608;28;20462;-42
2021/12/26 10:21:45;;;;;;;5.10;4.60;;;7.90;90.50;;;;;;5058306;28;20427;-43
2021/12/26 10:24:18;;;;;;;5.97;4.90;;;7.90;90.70;;;;;;5063472;28;20742;-43
2021/12/26 10:26:46;;;;;;;4.87;4.47;;;7.90;91.00;;;;;;5065239;28;20421;-43
2021/12/26 10:29:16;;;;;;;5.60;5.03;;;8.00;91.20;;;;;;5065112;28;20488;-43
2021/12/26 10:32:19;;;;;;;6.23;5.63;;;8.00;91.20;;;;;;5072446;28;20419;-43
2021/12/26 10:34:49;;;;;;;5.30;4.87;;;7.90;91.30;;;;;;5065463;28;20932;-42
2021/12/26 10:37:21;;;;;;;7.00;6.00;;;8.10;91.50;;;;;;5052352;28;20427;-45
2021/12/26 10:39:51;;;;;;;8.60;7.70;;;8.10;91.60;;;;;;5062445;28;20890;-44
2021/12/26 10:42:22;;;;;;;8.30;7.50;;;7.80;91.40;;;;;;5063600;28;20420;-45
2021/12/26 10:44:54;;;;;;;6.80;6.20;;;7.70;91.90;;;;;;5066343;28;20423;-45
2021/12/26 10:47:26;;;;;;;6.27;5.67;;;7.30;92.00;;;;;;5081755;28;20459;-43
2021/12/26 10:49:56;;;;;;;7.77;6.97;;;7.20;92.50;;;;;;5066679;28;20434;-44
2021/12/26 10:52:28;;;;;;;6.00;5.40;;;7.00;93.00;;;;;;5057097;28;20443;-43
2021/12/26 10:55:01;;;;;;;6.90;5.87;;;6.90;93.50;;;;;;5063965;28;20959;-43
2021/12/26 10:57:30;;;;;;;6.00;5.37;;;6.80;93.70;;;;;;5068142;28;20485;-44
2021/12/26 11:00:23;;;;;;;5.60;5.03;;;6.80;93.90;;;;;;5066070;28;20459;-43
2021/12/26 11:02:52;;;;;;;6.77;5.10;;;6.80;94.20;;;;;;5066723;28;20512;-43
2021/12/26 11:05:21;;;;;;;6.50;5.43;;;6.70;93.90;;;;;;5072853;28;20427;-43
2021/12/26 11:07:59;;;;;;;6.70;6.00;;;6.70;94.10;;;;;;5057092;28;20431;-42
2021/12/26 11:10:38;;;;;;;8.03;6.50;;;6.80;94.10;;;;;;5064516;28;20426;-44
2021/12/26 11:13:07;;;;;;;6.83;6.20;;;6.70;94.50;;;;;;5064814;28;20949;-46
2021/12/26 11:15:36;;;;;;;7.30;6.00;;;6.60;94.60;;;;;;5064601;28;20420;-43
2021/12/26 11:18:09;;;;;;;7.33;5.87;;;6.70;94.50;;;;;;5066000;28;20987;-43
2021/12/26 11:20:41;;;;;;;6.30;5.53;;;6.80;94.50;;;;;;5070843;28;20776;-42
2021/12/26 11:23:16;;;;;;;6.13;5.33;;;6.60;94.90;;;;;;5059248;28;20492;-43
2021/12/26 11:25:51;;;;;;;6.63;5.60;;;6.50;95.00;;;;;;5068554;28;20426;-42
2021/12/26 11:28:22;;;;;;;6.50;5.80;;;6.40;94.90;;;;;;5066206;28;20411;-44
2021/12/26 11:30:48;;;;;;;6.83;5.87;;;6.10;95.20;;;;;;5069792;28;20674;-42
2021/12/26 11:33:14;;;;;;;9.67;6.10;;;6.30;95.80;;;;;;5069933;28;20411;-44
2021/12/26 11:35:40;;;;;;;7.03;6.33;;;5.90;95.90;;;;;;5067977;28;20438;-42
2021/12/26 11:38:13;;;;;;;8.10;5.80;;;5.80;96.50;;;;;;5067485;28;20553;-42
2021/12/26 11:40:41;;;;;;;6.00;5.40;;;5.70;96.30;;;;;;5068272;28;20427;-42
2021/12/26 11:43:26;;;;;;;8.70;6.43;;;5.80;96.20;;;;;;5067375;28;20511;-42
2021/12/26 11:46:16;;;;;;;7.57;5.47;;;5.90;96.30;;;;;;5067609;28;20468;-41
2021/12/26 11:49:21;;;;;;;7.53;6.43;;;6.00;96.50;;;;;;5067839;28;20423;-42
2021/12/26 11:52:19;;;;;;;6.70;5.87;;;5.60;96.90;;;;;;5061956;28;20926;-43
2021/12/26 11:54:47;;;;;;;7.67;6.47;;;5.50;97.50;;;;;;5062361;28;20514;-43
2021/12/26 11:57:51;;;;;;;7.80;6.57;;;5.50;97.70;;;;;;5065997;28;20824;-42
2021/12/26 12:00:30;;;;;;;7.60;6.80;;;5.20;97.90;;;;;;5066243;28;20818;-41
2021/12/26 12:03:01;;;;;;;8.10;6.40;;;5.60;98.60;;;;;;5067206;28;20865;-43
2021/12/26 12:05:39;;;;;;;6.27;5.67;;;5.20;98.70;;;;;;5068158;28;21159;-41
2021/12/26 12:08:06;;;;;;;10.60;6.97;;;5.50;99.10;;;;;;5057695;28;20428;-42
2021/12/26 12:10:41;;;;;;;7.47;6.43;;;5.40;99.60;;;;;;5068519;28;20446;-43
2021/12/26 12:13:23;;;;;;;6.20;5.60;;;5.30;99.40;;;;;;5068148;28;20414;-43
2021/12/26 12:15:54;;;;;;;7.20;6.40;;;5.30;99.40;;;;;;5068622;28;20424;-41
2021/12/26 12:18:20;;;;;;;13.50;7.50;;;5.40;99.80;;;;;;5074839;28;20422;-42
2021/12/26 12:20:47;;;;;;;9.00;7.00;;;5.40;99.60;;;;;;5088579;28;20938;-43
2021/12/26 12:23:16;;;;;;;7.87;7.07;;;5.40;99.80;;;;;;5064385;28;20272;-42
2021/12/26 12:25:52;;;;;;;8.13;7.30;;;5.20;99.90;;;;;;5067861;28;20423;-42
2021/12/26 12:28:26;;;;;;;6.63;6.00;;;5.30;99.90;;;;;;5066514;28;20783;-41
2021/12/26 12:31:12;;;;;;;8.47;7.13;;;5.30;99.90;;;;;;5068089;28;20430;-42
2021/12/26 12:33:38;;;;;;;8.20;6.70;;;5.40;99.90;;;;;;5067488;28;20420;-42
2021/12/26 12:36:08;;;;;;;10.67;7.80;;;5.30;99.90;;;;;;5068349;28;20419;-44
2021/12/26 12:38:44;;;;;;;9.83;7.90;;;5.00;99.90;;;;;;5058570;28;20911;-44
2021/12/26 12:41:38;;;;;;;7.70;6.70;;;5.10;99.90;;;;;;5068034;28;20514;-47
2021/12/26 12:44:08;;;;;;;8.57;7.30;;;5.10;99.90;;;;;;5067231;28;20719;-40
2021/12/26 12:47:24;;;;;;;8.63;6.53;;;5.10;99.90;;;;;;5068058;28;20506;-44
2021/12/26 12:50:01;;;;;;;9.57;7.27;;;5.00;99.90;;;;;;4993393;28;20526;-41
2021/12/26 12:52:43;;;;;;;9.17;7.33;;;5.10;99.90;;;;;;4990130;28;20430;-41
2021/12/26 12:55:19;;;;;;;10.83;7.73;;;4.90;99.90;;;;;;5049013;28;20411;-40
2021/12/26 12:57:53;;;;;;;9.47;8.00;;;5.00;99.90;;;;;;5066336;28;20439;-42
2021/12/26 13:00:24;;;;;;;8.90;7.37;;;5.30;99.90;;;;;;5066133;28;20572;-41
2021/12/26 13:02:55;;;;;;;10.07;8.70;;;5.20;99.90;;;;;;5065532;28;20472;-44
2021/12/26 13:05:34;;;;;;;9.20;8.20;;;5.10;99.90;;;;;;5067723;28;20921;-41
2021/12/26 13:08:09;;;;;;;10.23;8.80;;;5.00;99.90;;;;;;5056590;28;20432;-41
2021/12/26 13:10:35;;;;;;;10.90;8.50;;;4.90;99.90;;;;;;5063056;28;20509;-41
2021/12/26 13:13:05;;;;;;;9.80;8.80;;;4.90;99.90;;;;;;5066913;28;20419;-40
2021/12/26 13:15:31;;;;;;;10.70;9.37;;;4.70;99.90;;;;;;5067565;28;20498;-41